This is the latest recevied weather packets stored in our database for station/object JA1RBY-13. If no packets are shown the sender has not sent any weather packets the latest 1 day(s).
| Time | Temp. | Humidity | Pressure | Rain* | Wind** | Luminosity | Snow |
|---|---|---|---|---|---|---|---|
| 1836274742 | 25° C | 66% | 1013.4 hPa | 0 mm | 1.34 m/s, 291° | - | - |
| 1778042910 | 21.11° C | 54% | 1020.5 hPa | 0 mm | 3.13 m/s, 253° | - | - |
| 1778040210 | 21.11° C | 54% | 1020.9 hPa | 0 mm | 2.68 m/s, 168° | - | - |
| 1778038411 | 20.56° C | 54% | 1021.2 hPa | 0 mm | 3.58 m/s, 178° | - | - |
| 1778037510 | 21.11° C | 52% | 1021.2 hPa | 0 mm | 4.02 m/s, 189° | - | - |
| 1778035711 | 22.22° C | 51% | 1021.4 hPa | 0 mm | 1.79 m/s, 222° | - | - |
| 1778034810 | 21.67° C | 50% | 1021.5 hPa | 0 mm | 2.68 m/s, 259° | - | - |
| 1778033911 | 21.11° C | 51% | 1021.9 hPa | 0 mm | 2.68 m/s, 233° | - | - |
| 1778033009 | 21.11° C | 51% | 1021.9 hPa | 0 mm | 2.24 m/s, 212° | - | - |
| 1778029411 | 21.11° C | 48% | 1022.9 hPa | 0 mm | 1.34 m/s, 275° | - | - |
| 1778028511 | 21.67° C | 45% | 1023 hPa | 0 mm | 0 m/s | - | - |
| 1778026710 | 18.89° C | 46% | 1023.3 hPa | 0 mm | 0 m/s | - | - |
| 1778024911 | 17.22° C | 49% | 1023.6 hPa | 0 mm | 0.45 m/s, 20° | - | - |
| 1778024011 | 16.67° C | 50% | 1023.6 hPa | 0 mm | 0.89 m/s, 17° | - | - |
| 1778021311 | 16.11° C | 52% | 1023.3 hPa | 0 mm | 0.45 m/s, 34° | - | - |
| 1778020411 | 16.11° C | 51% | 1023.3 hPa | 0 mm | 0.45 m/s, 24° | - | - |
| 1778019510 | 15.56° C | 52% | 1023.4 hPa | 0 mm | 0.45 m/s, 9° | - | - |
| 1778017710 | 14.44° C | 54% | 1023.7 hPa | 0 mm | 1.34 m/s, 25° | - | - |
| 1778015010 | 13.89° C | 58% | 1023.3 hPa | 0 mm | 0 m/s | - | - |
| 1778013211 | 13.89° C | 57% | 1023.5 hPa | 0 mm | 0 m/s | - | - |
| 1778012310 | 13.33° C | 57% | 1023.4 hPa | 0 mm | 0 m/s | - | - |
| 1778011411 | 13.33° C | 57% | 1023.3 hPa | 0 mm | 0 m/s | - | - |
| 1778009610 | 13.89° C | 55% | 1023.2 hPa | 0 mm | 0 m/s | - | - |
| 1778006910 | 13.89° C | 53% | 1023 hPa | 0 mm | 0 m/s | - | - |
| 1778006010 | 13.89° C | 53% | 1022.8 hPa | 0 mm | 0 m/s | - | - |
* Rain latest hour (hover to see other rain measurements)
** Current wind speed in m/s (hover to see current wind gust speed)